Aérodrome :
LOGIN :

S'inscrire | Disclaimer

   EN    FR    IT 

 










Légende :    VFR   VFR Marginal   IFR   IFR Intensif   IFR Très Intensif
Visi : 
Plafond : 
>= 8 km
>= 3000ft
5 à 8 km
1000 à 3000 ft
1500m à 5 km
500 à 1000 ft
800 à 1500m
200 à 500 ft
< 800m
< 200 ft
Symboles :   Orages  Brouillard  Fortes neiges  Fortes précipitations  Vent > 20 kt
SIGMETs :   Divers  Orages  Givrage  Turbulence  Onde Orograph.  Cendres Volcan.






- Altitude de l'aérodrome : 1568 ft


ETSB - Büchel AB

DERNIER METAR :
  • 231820Z AUTO 07005KT 9999 // ////// 22/12 Q1014 ///

METARs EXPIRÉS :
  • 231733Z 09006KT 9999 FEW050 SCT310 23/11 Q1014 BLU+FCST CANCEL
  • 231720Z 09005KT 9999 FEW050 SCT310 23/11 Q1014 BLU+BLU+
  • 231620Z 04004KT 9999 FEW050 SCT320 24/11 Q1015 BLU+BLU+

TAF TAF ETSB
Valide du 23 à 14h jusqu'au 23 à 23h UTC


231320Z 2314/2323 07007KT 9999 NSW SCT050 BY ETGL



MET'MAP, la Météo Aéronautique d'un coup d'oeil ! - Copyright ORBIFLY Décembre 2007 - Disclaimer

ORBIFLY MET'MAP TEAM :

Programmation & Développement : Alexandra Zaïnal
Sur une idée originale de : Baudouin d'Aumeries
Assistance à la programmation : Marc-Olivier Méhu
Soutien technique & logistique : Manuel Goepfert

Contact : metmap@orbifly.com




SOURCES & CREDITS :

   NOAA